sensor_id;sensor_type;location;lat;lon;timestamp;P1;durP1;ratioP1;P2;durP2;ratioP2
33150;SDS011;19508;42.578;23.416;2022-10-22T00:00:21;25.23;;;13.57;;
33150;SDS011;19508;42.578;23.416;2022-10-22T00:02:47;25.08;;;13.60;;
33150;SDS011;19508;42.578;23.416;2022-10-22T00:05:13;31.15;;;14.40;;
33150;SDS011;19508;42.578;23.416;2022-10-22T00:07:38;21.58;;;13.73;;
33150;SDS011;19508;42.578;23.416;2022-10-22T00:10:05;23.80;;;13.65;;
33150;SDS011;19508;42.578;23.416;2022-10-22T00:12:31;24.88;;;13.63;;
33150;SDS011;19508;42.578;23.416;2022-10-22T00:14:57;29.38;;;14.25;;
33150;SDS011;19508;42.578;23.416;2022-10-22T00:17:22;28.58;;;13.88;;
33150;SDS011;19508;42.578;23.416;2022-10-22T00:19:48;24.15;;;13.85;;
33150;SDS011;19508;42.578;23.416;2022-10-22T00:22:13;23.45;;;13.40;;
33150;SDS011;19508;42.578;23.416;2022-10-22T00:24:39;25.27;;;13.43;;
33150;SDS011;19508;42.578;23.416;2022-10-22T00:27:05;23.73;;;13.63;;
33150;SDS011;19508;42.578;23.416;2022-10-22T00:29:32;23.05;;;12.90;;
33150;SDS011;19508;42.578;23.416;2022-10-22T00:31:57;22.02;;;12.50;;
33150;SDS011;19508;42.578;23.416;2022-10-22T00:34:23;30.45;;;13.57;;
33150;SDS011;19508;42.578;23.416;2022-10-22T00:36:48;26.88;;;14.32;;
33150;SDS011;19508;42.578;23.416;2022-10-22T00:39:15;34.75;;;17.92;;
33150;SDS011;19508;42.578;23.416;2022-10-22T00:41:43;68.30;;;29.05;;
33150;SDS011;19508;42.578;23.416;2022-10-22T00:47:13;38.67;;;17.95;;
33150;SDS011;19508;42.578;23.416;2022-10-22T00:49:40;33.55;;;16.85;;
33150;SDS011;19508;42.578;23.416;2022-10-22T00:52:06;28.42;;;13.90;;
33150;SDS011;19508;42.578;23.416;2022-10-22T00:54:33;22.45;;;13.48;;
33150;SDS011;19508;42.578;23.416;2022-10-22T00:57:01;22.67;;;12.45;;
33150;SDS011;19508;42.578;23.416;2022-10-22T00:59:27;31.15;;;12.43;;
33150;SDS011;19508;42.578;23.416;2022-10-22T01:01:53;18.98;;;11.27;;
33150;SDS011;19508;42.578;23.416;2022-10-22T01:04:19;20.55;;;11.95;;
33150;SDS011;19508;42.578;23.416;2022-10-22T01:06:45;26.25;;;14.65;;
33150;SDS011;19508;42.578;23.416;2022-10-22T01:17:08;34.55;;;17.17;;
33150;SDS011;19508;42.578;23.416;2022-10-22T01:30:26;28.23;;;13.43;;
33150;SDS011;19508;42.578;23.416;2022-10-22T01:32:53;23.80;;;12.80;;
33150;SDS011;19508;42.578;23.416;2022-10-22T01:35:27;19.40;;;11.45;;
33150;SDS011;19508;42.578;23.416;2022-10-22T01:38:00;29.92;;;13.93;;
33150;SDS011;19508;42.578;23.416;2022-10-22T01:40:28;24.00;;;12.38;;
33150;SDS011;19508;42.578;23.416;2022-10-22T01:43:00;22.70;;;12.57;;
33150;SDS011;19508;42.578;23.416;2022-10-22T01:45:28;18.67;;;8.35;;
33150;SDS011;19508;42.578;23.416;2022-10-22T01:50:44;19.02;;;10.55;;
33150;SDS011;19508;42.578;23.416;2022-10-22T01:53:35;18.23;;;10.98;;
33150;SDS011;19508;42.578;23.416;2022-10-22T01:56:21;22.05;;;12.23;;
33150;SDS011;19508;42.578;23.416;2022-10-22T02:01:48;24.00;;;12.25;;
33150;SDS011;19508;42.578;23.416;2022-10-22T02:07:42;22.05;;;12.27;;
33150;SDS011;19508;42.578;23.416;2022-10-22T02:10:13;23.10;;;12.80;;
33150;SDS011;19508;42.578;23.416;2022-10-22T02:12:41;19.73;;;12.23;;
33150;SDS011;19508;42.578;23.416;2022-10-22T02:15:10;24.35;;;13.48;;
33150;SDS011;19508;42.578;23.416;2022-10-22T02:17:37;26.50;;;12.00;;
33150;SDS011;19508;42.578;23.416;2022-10-22T02:20:09;24.52;;;12.20;;
33150;SDS011;19508;42.578;23.416;2022-10-22T02:22:41;22.95;;;13.00;;
33150;SDS011;19508;42.578;23.416;2022-10-22T02:25:07;23.77;;;12.02;;
33150;SDS011;19508;42.578;23.416;2022-10-22T02:27:44;18.58;;;11.32;;
33150;SDS011;19508;42.578;23.416;2022-10-22T02:30:45;18.58;;;10.90;;
33150;SDS011;19508;42.578;23.416;2022-10-22T02:33:20;25.67;;;11.75;;
33150;SDS011;19508;42.578;23.416;2022-10-22T02:35:50;21.08;;;11.57;;
33150;SDS011;19508;42.578;23.416;2022-10-22T02:38:17;22.70;;;12.30;;
33150;SDS011;19508;42.578;23.416;2022-10-22T02:40:43;21.20;;;12.02;;
33150;SDS011;19508;42.578;23.416;2022-10-22T02:43:09;25.33;;;12.60;;
33150;SDS011;19508;42.578;23.416;2022-10-22T02:45:34;20.13;;;11.35;;
33150;SDS011;19508;42.578;23.416;2022-10-22T02:48:00;21.75;;;11.60;;
33150;SDS011;19508;42.578;23.416;2022-10-22T02:50:26;22.52;;;12.20;;
33150;SDS011;19508;42.578;23.416;2022-10-22T02:52:52;21.65;;;11.45;;
33150;SDS011;19508;42.578;23.416;2022-10-22T02:55:17;20.98;;;12.55;;
33150;SDS011;19508;42.578;23.416;2022-10-22T02:57:42;22.30;;;12.60;;
33150;SDS011;19508;42.578;23.416;2022-10-22T03:00:08;23.23;;;11.98;;
33150;SDS011;19508;42.578;23.416;2022-10-22T03:02:35;22.13;;;12.23;;
33150;SDS011;19508;42.578;23.416;2022-10-22T03:05:00;20.50;;;11.50;;
33150;SDS011;19508;42.578;23.416;2022-10-22T03:07:26;21.25;;;11.75;;
33150;SDS011;19508;42.578;23.416;2022-10-22T03:09:51;19.55;;;10.75;;
33150;SDS011;19508;42.578;23.416;2022-10-22T03:12:17;22.48;;;11.65;;
33150;SDS011;19508;42.578;23.416;2022-10-22T03:14:42;20.42;;;11.98;;
33150;SDS011;19508;42.578;23.416;2022-10-22T03:17:08;20.92;;;12.10;;
33150;SDS011;19508;42.578;23.416;2022-10-22T03:19:33;21.30;;;11.55;;
33150;SDS011;19508;42.578;23.416;2022-10-22T03:22:04;25.05;;;12.10;;
33150;SDS011;19508;42.578;23.416;2022-10-22T03:24:35;23.95;;;11.30;;
33150;SDS011;19508;42.578;23.416;2022-10-22T03:27:13;23.33;;;11.77;;
33150;SDS011;19508;42.578;23.416;2022-10-22T03:29:40;19.92;;;11.35;;
33150;SDS011;19508;42.578;23.416;2022-10-22T03:32:07;19.58;;;11.60;;
33150;SDS011;19508;42.578;23.416;2022-10-22T03:34:32;20.23;;;11.65;;
33150;SDS011;19508;42.578;23.416;2022-10-22T03:36:58;18.63;;;11.10;;
33150;SDS011;19508;42.578;23.416;2022-10-22T03:39:25;22.35;;;12.15;;
33150;SDS011;19508;42.578;23.416;2022-10-22T03:41:53;23.13;;;11.70;;
33150;SDS011;19508;42.578;23.416;2022-10-22T03:44:19;19.85;;;11.50;;
33150;SDS011;19508;42.578;23.416;2022-10-22T03:46:46;21.20;;;11.60;;
33150;SDS011;19508;42.578;23.416;2022-10-22T03:49:12;20.52;;;10.63;;
33150;SDS011;19508;42.578;23.416;2022-10-22T03:51:38;20.13;;;11.35;;
33150;SDS011;19508;42.578;23.416;2022-10-22T03:54:03;33.75;;;12.13;;
33150;SDS011;19508;42.578;23.416;2022-10-22T03:56:29;17.48;;;11.35;;
33150;SDS011;19508;42.578;23.416;2022-10-22T03:58:55;23.92;;;13.18;;
33150;SDS011;19508;42.578;23.416;2022-10-22T04:01:22;21.95;;;13.35;;
33150;SDS011;19508;42.578;23.416;2022-10-22T04:03:48;22.52;;;12.77;;
33150;SDS011;19508;42.578;23.416;2022-10-22T04:06:13;20.88;;;12.13;;
33150;SDS011;19508;42.578;23.416;2022-10-22T04:08:39;16.65;;;10.85;;
33150;SDS011;19508;42.578;23.416;2022-10-22T04:11:06;27.15;;;12.77;;
33150;SDS011;19508;42.578;23.416;2022-10-22T04:13:32;19.83;;;10.95;;
33150;SDS011;19508;42.578;23.416;2022-10-22T04:18:36;20.92;;;11.93;;
33150;SDS011;19508;42.578;23.416;2022-10-22T04:21:02;21.42;;;12.70;;
33150;SDS011;19508;42.578;23.416;2022-10-22T04:23:28;28.20;;;13.60;;
33150;SDS011;19508;42.578;23.416;2022-10-22T04:26:00;23.70;;;13.55;;
33150;SDS011;19508;42.578;23.416;2022-10-22T04:28:27;25.27;;;13.45;;
33150;SDS011;19508;42.578;23.416;2022-10-22T04:30:53;29.02;;;13.77;;
33150;SDS011;19508;42.578;23.416;2022-10-22T04:33:19;26.42;;;14.30;;
33150;SDS011;19508;42.578;23.416;2022-10-22T04:35:45;28.13;;;13.98;;
33150;SDS011;19508;42.578;23.416;2022-10-22T04:38:10;23.38;;;12.57;;
33150;SDS011;19508;42.578;23.416;2022-10-22T04:40:35;24.13;;;13.77;;
33150;SDS011;19508;42.578;23.416;2022-10-22T04:43:01;27.73;;;13.57;;
33150;SDS011;19508;42.578;23.416;2022-10-22T04:45:26;23.52;;;12.98;;
33150;SDS011;19508;42.578;23.416;2022-10-22T04:47:52;27.27;;;13.40;;
33150;SDS011;19508;42.578;23.416;2022-10-22T04:50:17;23.98;;;13.32;;
33150;SDS011;19508;42.578;23.416;2022-10-22T04:52:43;22.13;;;12.80;;
33150;SDS011;19508;42.578;23.416;2022-10-22T04:55:08;24.63;;;12.85;;
33150;SDS011;19508;42.578;23.416;2022-10-22T04:57:34;21.30;;;12.70;;
33150;SDS011;19508;42.578;23.416;2022-10-22T05:00:00;26.58;;;12.20;;
33150;SDS011;19508;42.578;23.416;2022-10-22T05:02:25;19.05;;;11.88;;
33150;SDS011;19508;42.578;23.416;2022-10-22T05:04:51;20.20;;;12.52;;
33150;SDS011;19508;42.578;23.416;2022-10-22T05:07:16;23.63;;;13.13;;
33150;SDS011;19508;42.578;23.416;2022-10-22T05:09:41;20.13;;;10.95;;
33150;SDS011;19508;42.578;23.416;2022-10-22T05:12:07;23.48;;;13.50;;
33150;SDS011;19508;42.578;23.416;2022-10-22T05:14:32;22.27;;;12.10;;
33150;SDS011;19508;42.578;23.416;2022-10-22T05:16:58;23.98;;;12.93;;
33150;SDS011;19508;42.578;23.416;2022-10-22T05:19:27;23.98;;;13.73;;
33150;SDS011;19508;42.578;23.416;2022-10-22T05:21:56;17.08;;;9.70;;
33150;SDS011;19508;42.578;23.416;2022-10-22T05:24:23;26.88;;;12.38;;
33150;SDS011;19508;42.578;23.416;2022-10-22T05:26:50;21.98;;;12.77;;
33150;SDS011;19508;42.578;23.416;2022-10-22T05:29:16;20.55;;;12.25;;
33150;SDS011;19508;42.578;23.416;2022-10-22T05:31:41;22.92;;;13.02;;
33150;SDS011;19508;42.578;23.416;2022-10-22T05:34:07;30.50;;;12.43;;
33150;SDS011;19508;42.578;23.416;2022-10-22T05:36:32;21.65;;;12.57;;
33150;SDS011;19508;42.578;23.416;2022-10-22T05:38:58;20.98;;;12.30;;
33150;SDS011;19508;42.578;23.416;2022-10-22T05:41:24;21.40;;;12.85;;
33150;SDS011;19508;42.578;23.416;2022-10-22T05:43:53;19.83;;;11.38;;
33150;SDS011;19508;42.578;23.416;2022-10-22T05:46:23;31.20;;;12.15;;
33150;SDS011;19508;42.578;23.416;2022-10-22T05:48:51;23.88;;;12.10;;
33150;SDS011;19508;42.578;23.416;2022-10-22T05:51:21;21.13;;;12.10;;
33150;SDS011;19508;42.578;23.416;2022-10-22T05:53:52;18.98;;;11.02;;
33150;SDS011;19508;42.578;23.416;2022-10-22T05:56:19;25.25;;;12.60;;
33150;SDS011;19508;42.578;23.416;2022-10-22T05:58:45;22.80;;;12.05;;
33150;SDS011;19508;42.578;23.416;2022-10-22T06:01:12;21.58;;;12.43;;
33150;SDS011;19508;42.578;23.416;2022-10-22T06:03:39;19.48;;;12.02;;
33150;SDS011;19508;42.578;23.416;2022-10-22T06:06:28;20.08;;;12.38;;
33150;SDS011;19508;42.578;23.416;2022-10-22T06:08:53;21.77;;;13.18;;
33150;SDS011;19508;42.578;23.416;2022-10-22T06:11:20;21.42;;;12.30;;
33150;SDS011;19508;42.578;23.416;2022-10-22T06:13:47;20.13;;;12.23;;
33150;SDS011;19508;42.578;23.416;2022-10-22T06:16:13;25.35;;;12.57;;
33150;SDS011;19508;42.578;23.416;2022-10-22T06:18:39;18.63;;;11.13;;
33150;SDS011;19508;42.578;23.416;2022-10-22T06:21:09;28.67;;;11.70;;
33150;SDS011;19508;42.578;23.416;2022-10-22T06:23:36;22.55;;;12.70;;
33150;SDS011;19508;42.578;23.416;2022-10-22T06:26:02;23.83;;;14.38;;
33150;SDS011;19508;42.578;23.416;2022-10-22T06:28:28;36.22;;;18.30;;
33150;SDS011;19508;42.578;23.416;2022-10-22T06:30:55;33.72;;;15.45;;
33150;SDS011;19508;42.578;23.416;2022-10-22T06:33:21;26.25;;;15.30;;
33150;SDS011;19508;42.578;23.416;2022-10-22T06:35:47;20.75;;;11.80;;
33150;SDS011;19508;42.578;23.416;2022-10-22T06:38:12;24.08;;;11.75;;
33150;SDS011;19508;42.578;23.416;2022-10-22T06:40:38;19.52;;;11.32;;
33150;SDS011;19508;42.578;23.416;2022-10-22T06:43:07;18.98;;;11.43;;
33150;SDS011;19508;42.578;23.416;2022-10-22T06:45:33;16.65;;;10.45;;
33150;SDS011;19508;42.578;23.416;2022-10-22T06:47:58;14.68;;;9.70;;
33150;SDS011;19508;42.578;23.416;2022-10-22T06:50:24;18.30;;;11.23;;
33150;SDS011;19508;42.578;23.416;2022-10-22T06:52:49;17.33;;;10.48;;
33150;SDS011;19508;42.578;23.416;2022-10-22T06:55:15;21.70;;;11.35;;
33150;SDS011;19508;42.578;23.416;2022-10-22T06:57:40;14.18;;;8.95;;
33150;SDS011;19508;42.578;23.416;2022-10-22T07:00:06;17.50;;;10.85;;
33150;SDS011;19508;42.578;23.416;2022-10-22T07:02:32;15.20;;;9.65;;
33150;SDS011;19508;42.578;23.416;2022-10-22T07:04:57;19.17;;;11.80;;
33150;SDS011;19508;42.578;23.416;2022-10-22T07:07:23;14.57;;;9.25;;
33150;SDS011;19508;42.578;23.416;2022-10-22T07:09:48;16.88;;;9.30;;
33150;SDS011;19508;42.578;23.416;2022-10-22T07:12:14;17.30;;;9.75;;
33150;SDS011;19508;42.578;23.416;2022-10-22T07:14:40;14.35;;;8.70;;
33150;SDS011;19508;42.578;23.416;2022-10-22T07:17:05;13.13;;;8.95;;
33150;SDS011;19508;42.578;23.416;2022-10-22T07:19:31;15.60;;;9.82;;
33150;SDS011;19508;42.578;23.416;2022-10-22T07:21:56;28.90;;;13.68;;
33150;SDS011;19508;42.578;23.416;2022-10-22T07:24:22;21.33;;;9.95;;
33150;SDS011;19508;42.578;23.416;2022-10-22T07:26:47;18.95;;;11.50;;
33150;SDS011;19508;42.578;23.416;2022-10-22T07:29:13;30.70;;;15.55;;
33150;SDS011;19508;42.578;23.416;2022-10-22T07:31:39;39.85;;;20.42;;
33150;SDS011;19508;42.578;23.416;2022-10-22T07:34:06;27.98;;;15.70;;
33150;SDS011;19508;42.578;23.416;2022-10-22T07:36:31;30.33;;;20.40;;
33150;SDS011;19508;42.578;23.416;2022-10-22T07:38:57;18.70;;;11.23;;
33150;SDS011;19508;42.578;23.416;2022-10-22T07:41:24;18.98;;;10.10;;
33150;SDS011;19508;42.578;23.416;2022-10-22T07:43:50;22.60;;;8.68;;
33150;SDS011;19508;42.578;23.416;2022-10-22T07:46:16;15.65;;;8.85;;
33150;SDS011;19508;42.578;23.416;2022-10-22T07:48:42;22.40;;;8.85;;
33150;SDS011;19508;42.578;23.416;2022-10-22T07:51:08;20.80;;;9.07;;
33150;SDS011;19508;42.578;23.416;2022-10-22T07:53:33;16.92;;;9.00;;
33150;SDS011;19508;42.578;23.416;2022-10-22T07:55:59;16.10;;;9.35;;
33150;SDS011;19508;42.578;23.416;2022-10-22T07:58:24;20.30;;;9.52;;
33150;SDS011;19508;42.578;23.416;2022-10-22T08:00:50;16.13;;;9.68;;
33150;SDS011;19508;42.578;23.416;2022-10-22T08:03:18;18.95;;;10.30;;
33150;SDS011;19508;42.578;23.416;2022-10-22T08:05:44;19.92;;;10.43;;
33150;SDS011;19508;42.578;23.416;2022-10-22T08:08:10;16.85;;;11.07;;
33150;SDS011;19508;42.578;23.416;2022-10-22T08:10:37;20.88;;;10.68;;
33150;SDS011;19508;42.578;23.416;2022-10-22T08:13:02;26.40;;;10.85;;
33150;SDS011;19508;42.578;23.416;2022-10-22T08:15:28;26.35;;;11.90;;
33150;SDS011;19508;42.578;23.416;2022-10-22T08:17:55;22.50;;;11.65;;
33150;SDS011;19508;42.578;23.416;2022-10-22T08:20:20;30.05;;;13.13;;
33150;SDS011;19508;42.578;23.416;2022-10-22T08:22:46;45.47;;;13.98;;
33150;SDS011;19508;42.578;23.416;2022-10-22T08:25:11;23.02;;;12.23;;
33150;SDS011;19508;42.578;23.416;2022-10-22T08:27:37;25.83;;;12.40;;
33150;SDS011;19508;42.578;23.416;2022-10-22T08:30:03;28.33;;;10.88;;
33150;SDS011;19508;42.578;23.416;2022-10-22T08:32:29;16.60;;;10.35;;
33150;SDS011;19508;42.578;23.416;2022-10-22T08:34:55;17.02;;;10.98;;
33150;SDS011;19508;42.578;23.416;2022-10-22T08:37:21;20.55;;;11.07;;
33150;SDS011;19508;42.578;23.416;2022-10-22T08:39:46;18.55;;;10.65;;
33150;SDS011;19508;42.578;23.416;2022-10-22T08:48:07;21.77;;;12.82;;
33150;SDS011;19508;42.578;23.416;2022-10-22T08:50:46;39.50;;;12.15;;
33150;SDS011;19508;42.578;23.416;2022-10-22T08:53:18;21.30;;;10.15;;
33150;SDS011;19508;42.578;23.416;2022-10-22T08:55:52;20.55;;;10.68;;
33150;SDS011;19508;42.578;23.416;2022-10-22T08:58:24;32.00;;;10.73;;
33150;SDS011;19508;42.578;23.416;2022-10-22T09:01:00;33.93;;;10.80;;
33150;SDS011;19508;42.578;23.416;2022-10-22T09:08:41;22.08;;;11.13;;
33150;SDS011;19508;42.578;23.416;2022-10-22T09:14:02;23.15;;;10.98;;
33150;SDS011;19508;42.578;23.416;2022-10-22T09:24:36;27.00;;;12.40;;
33150;SDS011;19508;42.578;23.416;2022-10-22T09:27:25;31.05;;;12.52;;
33150;SDS011;19508;42.578;23.416;2022-10-22T09:29:52;25.65;;;11.30;;
33150;SDS011;19508;42.578;23.416;2022-10-22T09:32:18;31.35;;;12.13;;
33150;SDS011;19508;42.578;23.416;2022-10-22T09:34:44;32.70;;;12.90;;
33150;SDS011;19508;42.578;23.416;2022-10-22T09:37:11;25.25;;;11.23;;
33150;SDS011;19508;42.578;23.416;2022-10-22T09:39:40;24.83;;;12.30;;
33150;SDS011;19508;42.578;23.416;2022-10-22T09:42:09;21.98;;;11.73;;
33150;SDS011;19508;42.578;23.416;2022-10-22T09:44:38;23.10;;;10.20;;
33150;SDS011;19508;42.578;23.416;2022-10-22T09:47:46;20.30;;;11.52;;
33150;SDS011;19508;42.578;23.416;2022-10-22T09:52:33;18.73;;;11.20;;
33150;SDS011;19508;42.578;23.416;2022-10-22T09:55:10;22.55;;;11.15;;
33150;SDS011;19508;42.578;23.416;2022-10-22T09:57:37;29.67;;;11.50;;
33150;SDS011;19508;42.578;23.416;2022-10-22T10:00:06;28.05;;;12.20;;
33150;SDS011;19508;42.578;23.416;2022-10-22T10:02:33;22.40;;;10.73;;
33150;SDS011;19508;42.578;23.416;2022-10-22T10:05:00;24.70;;;12.05;;
33150;SDS011;19508;42.578;23.416;2022-10-22T10:07:30;28.13;;;11.07;;
33150;SDS011;19508;42.578;23.416;2022-10-22T10:09:58;26.90;;;11.32;;
33150;SDS011;19508;42.578;23.416;2022-10-22T10:33:49;22.75;;;11.48;;
33150;SDS011;19508;42.578;23.416;2022-10-22T10:36:36;26.83;;;12.13;;
33150;SDS011;19508;42.578;23.416;2022-10-22T10:39:11;21.20;;;11.30;;
33150;SDS011;19508;42.578;23.416;2022-10-22T10:42:00;18.80;;;11.57;;
33150;SDS011;19508;42.578;23.416;2022-10-22T10:44:51;21.60;;;10.85;;
33150;SDS011;19508;42.578;23.416;2022-10-22T10:50:16;34.63;;;12.20;;
33150;SDS011;19508;42.578;23.416;2022-10-22T10:53:00;22.20;;;11.95;;
33150;SDS011;19508;42.578;23.416;2022-10-22T10:55:29;18.50;;;11.20;;
33150;SDS011;19508;42.578;23.416;2022-10-22T11:00:55;18.88;;;11.52;;
33150;SDS011;19508;42.578;23.416;2022-10-22T11:06:39;20.55;;;9.70;;
33150;SDS011;19508;42.578;23.416;2022-10-22T11:09:20;24.27;;;11.00;;
33150;SDS011;19508;42.578;23.416;2022-10-22T11:11:55;23.58;;;10.95;;
33150;SDS011;19508;42.578;23.416;2022-10-22T11:14:31;20.20;;;10.43;;
33150;SDS011;19508;42.578;23.416;2022-10-22T11:17:05;18.60;;;10.15;;
33150;SDS011;19508;42.578;23.416;2022-10-22T11:19:45;20.50;;;10.63;;
33150;SDS011;19508;42.578;23.416;2022-10-22T11:22:18;26.38;;;10.73;;
33150;SDS011;19508;42.578;23.416;2022-10-22T11:27:36;22.50;;;10.27;;
33150;SDS011;19508;42.578;23.416;2022-10-22T11:30:10;19.60;;;10.00;;
33150;SDS011;19508;42.578;23.416;2022-10-22T11:32:37;23.23;;;9.98;;
33150;SDS011;19508;42.578;23.416;2022-10-22T11:35:05;19.70;;;10.32;;
33150;SDS011;19508;42.578;23.416;2022-10-22T11:37:36;18.70;;;9.73;;
33150;SDS011;19508;42.578;23.416;2022-10-22T11:40:19;20.08;;;9.88;;
33150;SDS011;19508;42.578;23.416;2022-10-22T11:42:51;32.90;;;10.85;;
33150;SDS011;19508;42.578;23.416;2022-10-22T11:52:54;34.78;;;9.40;;
33150;SDS011;19508;42.578;23.416;2022-10-22T11:55:29;27.95;;;9.48;;
33150;SDS011;19508;42.578;23.416;2022-10-22T11:57:58;28.77;;;10.18;;
33150;SDS011;19508;42.578;23.416;2022-10-22T12:00:33;19.50;;;9.85;;
33150;SDS011;19508;42.578;23.416;2022-10-22T12:03:18;18.17;;;10.15;;
33150;SDS011;19508;42.578;23.416;2022-10-22T12:06:48;16.40;;;9.35;;
33150;SDS011;19508;42.578;23.416;2022-10-22T12:16:25;22.07;;;9.43;;
33150;SDS011;19508;42.578;23.416;2022-10-22T12:19:06;20.38;;;9.35;;
33150;SDS011;19508;42.578;23.416;2022-10-22T12:21:39;21.95;;;9.90;;
33150;SDS011;19508;42.578;23.416;2022-10-22T12:24:08;23.83;;;9.73;;
33150;SDS011;19508;42.578;23.416;2022-10-22T12:26:38;26.83;;;9.48;;
33150;SDS011;19508;42.578;23.416;2022-10-22T12:29:08;17.77;;;9.65;;
33150;SDS011;19508;42.578;23.416;2022-10-22T12:31:37;17.60;;;9.07;;
33150;SDS011;19508;42.578;23.416;2022-10-22T12:34:04;20.33;;;9.80;;
33150;SDS011;19508;42.578;23.416;2022-10-22T12:36:32;16.25;;;9.13;;
33150;SDS011;19508;42.578;23.416;2022-10-22T12:38:59;20.38;;;10.05;;
33150;SDS011;19508;42.578;23.416;2022-10-22T12:41:30;25.02;;;10.32;;
33150;SDS011;19508;42.578;23.416;2022-10-22T12:43:57;22.05;;;9.00;;
33150;SDS011;19508;42.578;23.416;2022-10-22T12:46:27;27.80;;;9.48;;
33150;SDS011;19508;42.578;23.416;2022-10-22T12:48:58;23.35;;;9.05;;
33150;SDS011;19508;42.578;23.416;2022-10-22T12:51:25;19.02;;;10.00;;
33150;SDS011;19508;42.578;23.416;2022-10-22T12:53:52;16.95;;;9.10;;
33150;SDS011;19508;42.578;23.416;2022-10-22T12:56:21;25.27;;;9.95;;
33150;SDS011;19508;42.578;23.416;2022-10-22T13:01:19;16.60;;;9.25;;
33150;SDS011;19508;42.578;23.416;2022-10-22T13:03:49;18.67;;;10.10;;
33150;SDS011;19508;42.578;23.416;2022-10-22T13:11:41;19.05;;;9.30;;
33150;SDS011;19508;42.578;23.416;2022-10-22T13:14:21;25.92;;;9.05;;
33150;SDS011;19508;42.578;23.416;2022-10-22T13:17:01;16.67;;;9.00;;
33150;SDS011;19508;42.578;23.416;2022-10-22T13:19:34;16.58;;;8.82;;
33150;SDS011;19508;42.578;23.416;2022-10-22T13:24:56;21.05;;;8.88;;
33150;SDS011;19508;42.578;23.416;2022-10-22T13:27:24;20.15;;;8.30;;
33150;SDS011;19508;42.578;23.416;2022-10-22T13:29:52;19.95;;;8.43;;
33150;SDS011;19508;42.578;23.416;2022-10-22T13:32:24;14.27;;;7.70;;
33150;SDS011;19508;42.578;23.416;2022-10-22T13:34:54;24.30;;;8.68;;
33150;SDS011;19508;42.578;23.416;2022-10-22T13:37:21;18.52;;;7.88;;
33150;SDS011;19508;42.578;23.416;2022-10-22T13:39:46;15.35;;;8.15;;
33150;SDS011;19508;42.578;23.416;2022-10-22T13:42:12;22.90;;;7.82;;
33150;SDS011;19508;42.578;23.416;2022-10-22T13:44:37;17.52;;;8.30;;
33150;SDS011;19508;42.578;23.416;2022-10-22T13:47:03;28.25;;;7.72;;
33150;SDS011;19508;42.578;23.416;2022-10-22T13:49:34;21.25;;;8.02;;
33150;SDS011;19508;42.578;23.416;2022-10-22T13:52:00;19.88;;;8.05;;
33150;SDS011;19508;42.578;23.416;2022-10-22T13:54:25;22.02;;;8.88;;
33150;SDS011;19508;42.578;23.416;2022-10-22T13:56:51;18.98;;;8.15;;
33150;SDS011;19508;42.578;23.416;2022-10-22T13:59:17;24.60;;;9.30;;
33150;SDS011;19508;42.578;23.416;2022-10-22T14:01:43;36.50;;;9.82;;
33150;SDS011;19508;42.578;23.416;2022-10-22T14:04:09;18.20;;;8.32;;
33150;SDS011;19508;42.578;23.416;2022-10-22T14:06:38;18.38;;;8.55;;
33150;SDS011;19508;42.578;23.416;2022-10-22T14:09:09;19.40;;;8.35;;
33150;SDS011;19508;42.578;23.416;2022-10-22T14:11:38;25.10;;;8.85;;
33150;SDS011;19508;42.578;23.416;2022-10-22T14:14:04;24.98;;;8.35;;
33150;SDS011;19508;42.578;23.416;2022-10-22T14:16:32;23.65;;;8.32;;
33150;SDS011;19508;42.578;23.416;2022-10-22T14:18:58;13.02;;;8.00;;
33150;SDS011;19508;42.578;23.416;2022-10-22T14:21:34;12.07;;;7.88;;
33150;SDS011;19508;42.578;23.416;2022-10-22T14:24:01;17.85;;;9.13;;
33150;SDS011;19508;42.578;23.416;2022-10-22T14:26:27;20.00;;;8.30;;
33150;SDS011;19508;42.578;23.416;2022-10-22T14:28:57;20.92;;;8.95;;
33150;SDS011;19508;42.578;23.416;2022-10-22T14:31:23;15.50;;;8.57;;
33150;SDS011;19508;42.578;23.416;2022-10-22T14:33:49;22.08;;;9.13;;
33150;SDS011;19508;42.578;23.416;2022-10-22T14:36:15;17.45;;;9.30;;
33150;SDS011;19508;42.578;23.416;2022-10-22T14:38:42;20.33;;;9.85;;
33150;SDS011;19508;42.578;23.416;2022-10-22T14:41:17;16.58;;;9.70;;
33150;SDS011;19508;42.578;23.416;2022-10-22T14:43:43;26.58;;;9.48;;
33150;SDS011;19508;42.578;23.416;2022-10-22T14:46:13;15.55;;;9.98;;
33150;SDS011;19508;42.578;23.416;2022-10-22T14:48:39;31.95;;;9.88;;
33150;SDS011;19508;42.578;23.416;2022-10-22T14:51:05;24.33;;;9.85;;
33150;SDS011;19508;42.578;23.416;2022-10-22T14:53:31;23.35;;;10.18;;
33150;SDS011;19508;42.578;23.416;2022-10-22T14:55:56;31.63;;;9.80;;
33150;SDS011;19508;42.578;23.416;2022-10-22T14:58:24;22.65;;;10.52;;
33150;SDS011;19508;42.578;23.416;2022-10-22T15:00:50;29.05;;;14.38;;
33150;SDS011;19508;42.578;23.416;2022-10-22T15:03:15;29.50;;;10.73;;
33150;SDS011;19508;42.578;23.416;2022-10-22T15:05:44;37.40;;;11.85;;
33150;SDS011;19508;42.578;23.416;2022-10-22T15:08:09;20.85;;;10.18;;
33150;SDS011;19508;42.578;23.416;2022-10-22T15:10:35;25.73;;;10.60;;
33150;SDS011;19508;42.578;23.416;2022-10-22T15:13:01;37.95;;;9.98;;
33150;SDS011;19508;42.578;23.416;2022-10-22T15:15:26;23.92;;;10.95;;
33150;SDS011;19508;42.578;23.416;2022-10-22T15:17:51;26.77;;;10.60;;
33150;SDS011;19508;42.578;23.416;2022-10-22T15:20:17;29.60;;;10.68;;
33150;SDS011;19508;42.578;23.416;2022-10-22T15:22:42;25.02;;;10.05;;
33150;SDS011;19508;42.578;23.416;2022-10-22T15:25:09;22.98;;;9.80;;
33150;SDS011;19508;42.578;23.416;2022-10-22T15:27:36;44.53;;;11.52;;
33150;SDS011;19508;42.578;23.416;2022-10-22T15:30:02;18.27;;;10.05;;
33150;SDS011;19508;42.578;23.416;2022-10-22T15:32:28;30.98;;;10.98;;
33150;SDS011;19508;42.578;23.416;2022-10-22T15:34:54;28.35;;;10.23;;
33150;SDS011;19508;42.578;23.416;2022-10-22T15:37:20;22.83;;;9.90;;
33150;SDS011;19508;42.578;23.416;2022-10-22T15:39:46;14.98;;;9.70;;
33150;SDS011;19508;42.578;23.416;2022-10-22T15:42:11;28.48;;;12.10;;
33150;SDS011;19508;42.578;23.416;2022-10-22T15:44:38;25.95;;;11.00;;
33150;SDS011;19508;42.578;23.416;2022-10-22T15:47:05;43.13;;;10.70;;
33150;SDS011;19508;42.578;23.416;2022-10-22T15:49:35;41.42;;;13.27;;
33150;SDS011;19508;42.578;23.416;2022-10-22T15:52:02;39.92;;;11.45;;
33150;SDS011;19508;42.578;23.416;2022-10-22T15:54:29;30.05;;;12.38;;
33150;SDS011;19508;42.578;23.416;2022-10-22T15:56:55;23.30;;;10.80;;
33150;SDS011;19508;42.578;23.416;2022-10-22T15:59:21;40.13;;;10.95;;
33150;SDS011;19508;42.578;23.416;2022-10-22T16:01:47;26.63;;;13.20;;
33150;SDS011;19508;42.578;23.416;2022-10-22T16:04:13;43.35;;;21.25;;
33150;SDS011;19508;42.578;23.416;2022-10-22T16:09:08;39.20;;;17.55;;
33150;SDS011;19508;42.578;23.416;2022-10-22T16:14:02;49.65;;;22.27;;
33150;SDS011;19508;42.578;23.416;2022-10-22T16:16:29;41.00;;;20.67;;
33150;SDS011;19508;42.578;23.416;2022-10-22T16:18:55;38.08;;;19.48;;